createdAt,value
2023-08-18T00:00:19.997Z,43.30
2023-08-18T00:01:20.037Z,39.80
2023-08-18T00:02:20.006Z,41.40
2023-08-18T00:03:20.016Z,44.00
2023-08-18T00:04:20.002Z,41.80
2023-08-18T00:05:19.967Z,40.00
2023-08-18T00:06:19.961Z,43.60
2023-08-18T00:07:19.937Z,41.30
2023-08-18T00:08:19.940Z,39.50
2023-08-18T00:09:19.909Z,42.90
2023-08-18T00:10:19.904Z,47.40
2023-08-18T00:11:19.940Z,42.40
2023-08-18T00:12:19.884Z,42.90
2023-08-18T00:13:19.884Z,48.50
2023-08-18T00:14:19.860Z,44.10
2023-08-18T00:15:19.939Z,44.80
2023-08-18T00:16:19.904Z,44.50
2023-08-18T00:17:19.832Z,49.90
2023-08-18T00:18:19.830Z,45.90
2023-08-18T00:19:19.816Z,41.50
2023-08-18T00:20:19.828Z,49.70
2023-08-18T00:21:19.796Z,47.30
2023-08-18T00:22:19.779Z,47.20
2023-08-18T00:23:19.782Z,50.30
2023-08-18T00:24:19.779Z,44.80
2023-08-18T00:25:19.781Z,47.00
2023-08-18T00:26:19.741Z,50.60
2023-08-18T00:27:19.727Z,44.10
2023-08-18T00:28:19.719Z,42.00
2023-08-18T00:29:19.726Z,46.90
2023-08-18T00:30:19.721Z,43.50
2023-08-18T00:31:19.732Z,42.70
2023-08-18T00:32:19.686Z,46.30
2023-08-18T00:33:19.687Z,47.80
2023-08-18T00:34:19.680Z,50.10
2023-08-18T00:35:19.713Z,47.40
2023-08-18T00:36:19.652Z,47.00
2023-08-18T00:37:19.630Z,53.30
2023-08-18T00:38:19.625Z,50.90
2023-08-18T00:39:19.634Z,52.80
2023-08-18T00:40:19.612Z,56.60
2023-08-18T00:41:19.608Z,58.10
2023-08-18T00:42:19.594Z,54.40
2023-08-18T00:43:19.592Z,53.40
2023-08-18T00:44:19.578Z,54.90
2023-08-18T00:45:19.558Z,57.20
2023-08-18T00:46:19.551Z,58.80
2023-08-18T00:47:19.560Z,50.20
2023-08-18T00:48:19.558Z,56.10
2023-08-18T00:49:19.553Z,72.90
2023-08-18T00:50:19.534Z,76.00
2023-08-18T00:51:19.500Z,70.60
2023-08-18T00:52:19.503Z,70.10
2023-08-18T00:53:19.524Z,75.10
2023-08-18T00:54:19.464Z,76.20
2023-08-18T00:55:19.462Z,73.10
2023-08-18T00:56:19.444Z,68.90
2023-08-18T00:57:19.448Z,71.40
2023-08-18T00:58:19.438Z,64.00
2023-08-18T00:59:19.423Z,73.30
2023-08-18T01:00:19.401Z,71.20
2023-08-18T01:01:19.453Z,59.30
2023-08-18T01:02:19.421Z,70.60
2023-08-18T01:03:19.447Z,63.30
2023-08-18T01:04:19.372Z,69.10
2023-08-18T01:05:19.371Z,70.00
2023-08-18T01:06:19.375Z,73.80
2023-08-18T01:07:19.363Z,73.20
2023-08-18T01:08:19.324Z,86.40
2023-08-18T01:09:19.317Z,80.00
2023-08-18T01:10:19.306Z,82.50
2023-08-18T01:11:19.309Z,86.60
2023-08-18T01:12:19.313Z,90.20
2023-08-18T01:13:19.273Z,89.80
2023-08-18T01:14:19.297Z,78.10
2023-08-18T01:15:19.259Z,86.40
2023-08-18T01:16:19.278Z,89.40
2023-08-18T01:17:19.234Z,94.10
2023-08-18T01:18:19.237Z,94.30
2023-08-18T01:19:19.217Z,98.80
2023-08-18T01:20:19.236Z,91.90
2023-08-18T01:21:19.228Z,85.20
2023-08-18T01:22:19.191Z,80.40
2023-08-18T01:23:19.180Z,82.00
2023-08-18T01:24:19.161Z,76.20
2023-08-18T01:25:19.187Z,74.80
2023-08-18T01:26:19.151Z,69.50
2023-08-18T01:27:19.129Z,67.10
2023-08-18T01:28:19.136Z,72.20
2023-08-18T01:29:19.132Z,69.20
2023-08-18T01:30:19.149Z,73.80
2023-08-18T01:31:19.102Z,77.90
2023-08-18T01:32:19.087Z,69.80
2023-08-18T01:33:19.075Z,59.90
2023-08-18T01:34:19.082Z,63.70
2023-08-18T01:35:19.093Z,71.90
2023-08-18T01:36:19.044Z,66.20
2023-08-18T01:37:19.023Z,76.30
2023-08-18T01:38:19.054Z,74.60
2023-08-18T01:39:19.029Z,70.10
2023-08-18T01:40:19.009Z,69.50
2023-08-18T01:41:18.985Z,64.20
2023-08-18T01:42:18.976Z,59.50
2023-08-18T01:43:18.967Z,58.60
2023-08-18T01:44:18.970Z,58.80
2023-08-18T01:45:18.971Z,57.30
2023-08-18T01:46:18.948Z,58.30
2023-08-18T01:47:18.929Z,60.60
2023-08-18T01:48:18.987Z,58.30
2023-08-18T01:49:18.913Z,57.60
2023-08-18T01:50:18.898Z,60.80
2023-08-18T01:51:18.911Z,59.10
2023-08-18T01:52:18.881Z,62.60
2023-08-18T01:53:18.882Z,64.30
2023-08-18T01:54:18.867Z,53.20
2023-08-18T01:55:18.865Z,60.00
2023-08-18T01:56:18.835Z,63.00
2023-08-18T01:57:18.855Z,62.80
2023-08-18T01:58:18.834Z,66.90
2023-08-18T01:59:18.817Z,70.60
2023-08-18T02:00:21.071Z,63.50
2023-08-18T02:01:19.811Z,57.20
2023-08-18T02:02:18.809Z,66.90
2023-08-18T02:03:18.861Z,64.50
2023-08-18T02:04:18.819Z,65.10
2023-08-18T02:05:18.772Z,68.80
2023-08-18T02:06:18.743Z,67.10
2023-08-18T02:07:18.765Z,78.90
2023-08-18T02:08:18.776Z,77.90
2023-08-18T02:09:18.711Z,78.10
2023-08-18T02:10:18.710Z,77.20
2023-08-18T02:11:18.689Z,88.40
2023-08-18T02:12:18.695Z,92.20
2023-08-18T02:13:18.694Z,90.60
2023-08-18T02:14:18.652Z,94.40
2023-08-18T02:15:18.645Z,97.10
2023-08-18T02:16:18.783Z,119.10
2023-08-18T02:17:18.649Z,91.50
2023-08-18T02:18:18.616Z,95.20
2023-08-18T02:19:18.636Z,110.50
2023-08-18T02:20:18.613Z,98.70
2023-08-18T02:21:18.600Z,85.40
2023-08-18T02:22:18.573Z,84.40
2023-08-18T02:23:18.568Z,72.20
2023-08-18T02:24:18.563Z,63.20
2023-08-18T02:25:18.548Z,74.30
2023-08-18T02:26:18.557Z,70.30
2023-08-18T02:27:18.561Z,61.90
2023-08-18T02:28:18.516Z,67.00
2023-08-18T02:29:18.509Z,75.20
2023-08-18T02:30:18.509Z,74.10
2023-08-18T02:31:18.550Z,70.10
2023-08-18T02:32:18.474Z,64.30
2023-08-18T02:33:18.502Z,81.60
2023-08-18T02:34:18.463Z,74.10
2023-08-18T02:35:18.470Z,83.80
2023-08-18T02:36:18.436Z,78.40
2023-08-18T02:37:18.434Z,73.80
2023-08-18T02:38:18.409Z,99.60
2023-08-18T02:39:18.403Z,96.10
2023-08-18T02:40:18.419Z,93.60
2023-08-18T02:41:18.388Z,86.90
2023-08-18T02:42:18.380Z,93.90
2023-08-18T02:43:18.359Z,85.20
2023-08-18T02:44:18.376Z,88.20
2023-08-18T02:45:18.368Z,86.40
2023-08-18T02:46:18.348Z,89.80
2023-08-18T02:47:19.318Z,95.00
2023-08-18T02:48:18.312Z,107.90
2023-08-18T02:49:18.319Z,138.40
2023-08-18T02:50:18.293Z,113.20
2023-08-18T02:51:18.293Z,126.60
2023-08-18T02:52:18.283Z,120.90
2023-08-18T02:53:18.261Z,100.30
2023-08-18T02:54:18.266Z,97.40
2023-08-18T02:55:18.259Z,116.80
2023-08-18T02:56:18.234Z,122.30
2023-08-18T02:57:18.221Z,119.20
2023-08-18T02:58:18.220Z,108.40
2023-08-18T02:59:18.220Z,103.80
2023-08-18T03:00:18.195Z,113.70
2023-08-18T03:01:18.193Z,122.10
2023-08-18T03:02:18.165Z,144.60
2023-08-18T03:03:18.262Z,170.90
2023-08-18T03:04:18.152Z,136.30
2023-08-18T03:05:18.150Z,173.00
2023-08-18T03:06:18.136Z,182.90
2023-08-18T03:07:18.132Z,210.10
2023-08-18T03:08:18.124Z,281.20
2023-08-18T03:09:18.096Z,353.00
2023-08-18T03:10:18.097Z,237.90
2023-08-18T03:11:18.092Z,185.30
2023-08-18T03:12:18.094Z,172.50
2023-08-18T03:13:18.122Z,325.40
2023-08-18T03:14:18.044Z,240.40
2023-08-18T03:15:18.032Z,209.90
2023-08-18T03:16:18.075Z,425.00
2023-08-18T03:17:18.046Z,349.30
2023-08-18T03:18:18.006Z,437.20
2023-08-18T03:19:18.009Z,272.00
2023-08-18T03:20:17.984Z,265.50
2023-08-18T03:21:17.986Z,257.80
2023-08-18T03:22:17.971Z,415.40
2023-08-18T03:23:17.941Z,220.30
2023-08-18T03:24:17.941Z,270.30
2023-08-18T03:25:17.941Z,184.40
2023-08-18T03:26:17.938Z,156.50
2023-08-18T03:27:17.936Z,161.50
2023-08-18T03:28:17.892Z,161.60
2023-08-18T03:29:17.892Z,235.50
2023-08-18T03:30:17.932Z,162.60
2023-08-18T03:31:17.898Z,157.50
2023-08-18T03:32:17.855Z,167.60
2023-08-18T03:33:17.914Z,172.60
2023-08-18T03:34:17.842Z,188.80
2023-08-18T03:35:17.845Z,200.50
2023-08-18T03:36:17.834Z,221.40
2023-08-18T03:37:17.806Z,210.30
2023-08-18T03:38:17.793Z,267.50
2023-08-18T03:39:17.786Z,222.40
2023-08-18T03:40:17.805Z,168.70
2023-08-18T03:41:17.764Z,185.80
2023-08-18T03:42:17.752Z,363.60
2023-08-18T03:43:17.742Z,276.80
2023-08-18T03:44:17.760Z,224.40
2023-08-18T03:45:17.752Z,205.70
2023-08-18T03:46:17.742Z,214.40
2023-08-18T03:47:17.709Z,179.70
2023-08-18T03:48:17.692Z,176.40
2023-08-18T03:49:17.716Z,143.30
2023-08-18T03:50:17.694Z,135.40
2023-08-18T03:51:17.663Z,147.40
2023-08-18T03:52:17.654Z,135.60
2023-08-18T03:53:17.640Z,198.90
2023-08-18T03:54:17.664Z,188.10
2023-08-18T03:55:17.641Z,150.90
2023-08-18T03:56:17.609Z,213.00
2023-08-18T03:57:17.594Z,173.60
2023-08-18T03:58:17.595Z,217.50
2023-08-18T03:59:17.596Z,146.80
2023-08-18T04:00:17.567Z,204.30
2023-08-18T04:01:17.755Z,176.30
2023-08-18T04:02:17.554Z,130.40
2023-08-18T04:03:17.654Z,150.80
2023-08-18T04:04:17.546Z,111.20
2023-08-18T04:05:17.518Z,144.30
2023-08-18T04:06:17.508Z,117.90
2023-08-18T04:07:17.497Z,132.40
2023-08-18T04:08:17.522Z,109.80
2023-08-18T04:09:17.488Z,150.40
2023-08-18T04:10:17.475Z,168.00
2023-08-18T04:11:17.457Z,143.30
2023-08-18T04:12:17.446Z,147.90
2023-08-18T04:13:17.469Z,130.70
2023-08-18T04:14:17.434Z,117.80
2023-08-18T04:15:17.474Z,115.30
2023-08-18T04:16:17.456Z,124.60
2023-08-18T04:17:17.414Z,153.40
2023-08-18T04:18:17.403Z,125.60
2023-08-18T04:19:17.380Z,185.10
2023-08-18T04:20:17.374Z,148.20
2023-08-18T04:21:17.370Z,142.00
2023-08-18T04:22:17.364Z,176.20
2023-08-18T04:23:17.336Z,176.40
2023-08-18T04:24:17.323Z,131.30
2023-08-18T04:25:17.330Z,132.60
2023-08-18T04:26:17.307Z,129.20
2023-08-18T04:27:17.318Z,134.60
2023-08-18T04:28:17.299Z,156.20
2023-08-18T04:29:17.277Z,129.80
2023-08-18T04:30:17.262Z,147.10
2023-08-18T04:31:17.394Z,122.20
2023-08-18T04:32:17.263Z,178.20
2023-08-18T04:33:17.231Z,108.00
2023-08-18T04:34:17.228Z,116.50
2023-08-18T04:35:17.216Z,130.10
2023-08-18T04:36:17.233Z,96.80
2023-08-18T04:37:17.194Z,82.40
2023-08-18T04:38:17.177Z,89.20
2023-08-18T04:39:17.171Z,78.70
2023-08-18T04:40:17.166Z,88.90
2023-08-18T04:41:17.155Z,91.40
2023-08-18T04:42:18.144Z,91.40
2023-08-18T04:43:17.137Z,94.30
2023-08-18T04:44:17.118Z,99.60
2023-08-18T04:45:17.137Z,100.40
2023-08-18T04:46:17.127Z,97.80
2023-08-18T04:47:17.106Z,78.90
2023-08-18T04:48:17.096Z,70.20
2023-08-18T04:49:17.093Z,73.80
2023-08-18T04:50:17.072Z,96.10
2023-08-18T04:51:17.056Z,95.00
2023-08-18T04:52:17.037Z,87.90
2023-08-18T04:53:17.045Z,82.10
2023-08-18T04:54:17.012Z,107.30
2023-08-18T04:55:17.021Z,94.70
2023-08-18T04:56:17.015Z,94.10
2023-08-18T04:57:17.155Z,84.10
2023-08-18T04:58:16.999Z,73.90
2023-08-18T04:59:17.991Z,82.50
2023-08-18T05:00:16.970Z,78.50
2023-08-18T05:01:16.975Z,84.70
2023-08-18T05:02:16.943Z,97.80
2023-08-18T05:03:17.026Z,86.50
2023-08-18T05:04:16.931Z,72.50
2023-08-18T05:05:16.900Z,71.60
2023-08-18T05:06:16.897Z,97.10
2023-08-18T05:07:16.891Z,81.10
2023-08-18T05:08:16.868Z,95.40
2023-08-18T05:09:17.898Z,73.10
2023-08-18T05:10:16.859Z,67.70
2023-08-18T05:11:16.847Z,68.10
2023-08-18T05:12:16.834Z,66.60
2023-08-18T05:13:16.842Z,79.60
2023-08-18T05:14:16.841Z,81.60
2023-08-18T05:15:16.803Z,69.60
2023-08-18T05:16:16.827Z,59.20
2023-08-18T05:17:16.784Z,57.00
2023-08-18T05:18:16.785Z,70.20
2023-08-18T05:19:16.776Z,65.50
2023-08-18T05:20:16.814Z,61.70
2023-08-18T05:21:16.743Z,52.50
2023-08-18T05:22:16.719Z,47.90
2023-08-18T05:23:17.768Z,47.10
2023-08-18T05:24:16.705Z,60.60
2023-08-18T05:25:16.711Z,50.70
2023-08-18T05:26:16.693Z,48.10
2023-08-18T05:27:16.695Z,57.00
2023-08-18T05:28:16.872Z,49.90
2023-08-18T05:29:16.655Z,47.80
2023-08-18T05:30:16.645Z,44.50
2023-08-18T05:31:16.717Z,46.50
2023-08-18T05:32:16.637Z,49.10
2023-08-18T05:33:16.614Z,36.60
2023-08-18T05:34:16.617Z,36.90
2023-08-18T05:35:16.590Z,41.00
2023-08-18T05:36:16.587Z,38.30
2023-08-18T05:37:16.591Z,36.70
2023-08-18T05:38:16.593Z,39.80
2023-08-18T05:39:16.554Z,45.00
2023-08-18T05:40:16.547Z,41.30
2023-08-18T05:41:16.706Z,34.60
2023-08-18T05:42:16.545Z,33.50
2023-08-18T05:43:16.507Z,31.40
2023-08-18T05:44:16.492Z,30.40
2023-08-18T05:45:16.493Z,29.00
2023-08-18T05:46:16.592Z,29.40
2023-08-18T05:47:16.468Z,28.60
2023-08-18T05:48:16.460Z,29.10
2023-08-18T05:49:16.449Z,28.80
2023-08-18T05:50:16.441Z,28.50
2023-08-18T05:51:16.459Z,26.90
2023-08-18T05:52:16.413Z,26.20
2023-08-18T05:53:16.412Z,32.00
2023-08-18T05:54:16.400Z,24.00
2023-08-18T05:55:16.429Z,22.80
2023-08-18T05:56:16.397Z,28.10
2023-08-18T05:57:16.375Z,26.90
2023-08-18T05:58:16.379Z,25.50
2023-08-18T05:59:16.382Z,27.50
2023-08-18T06:00:16.371Z,24.60
2023-08-18T06:01:16.363Z,28.70
2023-08-18T06:02:16.321Z,26.20
2023-08-18T06:03:16.320Z,22.10
2023-08-18T06:04:16.381Z,21.90
2023-08-18T06:05:16.301Z,25.40
2023-08-18T06:06:16.288Z,22.00
2023-08-18T06:07:16.263Z,22.90
2023-08-18T06:08:16.255Z,22.50
2023-08-18T06:09:16.274Z,22.90
2023-08-18T06:10:16.266Z,23.10
2023-08-18T06:11:16.234Z,22.30
2023-08-18T06:12:16.247Z,23.90
2023-08-18T06:13:16.213Z,23.20
2023-08-18T06:14:16.215Z,26.80
2023-08-18T06:15:16.189Z,24.40
2023-08-18T06:16:16.232Z,23.70
2023-08-18T06:17:16.166Z,23.80
2023-08-18T06:18:16.179Z,21.70
2023-08-18T06:19:16.172Z,19.70
2023-08-18T06:20:16.163Z,20.10
2023-08-18T06:21:16.125Z,23.50
2023-08-18T06:22:16.123Z,21.80
2023-08-18T06:23:16.193Z,24.90
2023-08-18T06:24:16.097Z,26.90
2023-08-18T06:25:16.086Z,26.10
2023-08-18T06:26:16.076Z,23.50
2023-08-18T06:27:16.068Z,23.40
2023-08-18T06:28:16.079Z,22.00
2023-08-18T06:29:16.049Z,21.30
2023-08-18T06:30:16.061Z,20.10
2023-08-18T06:31:16.049Z,18.10
2023-08-18T06:32:16.057Z,20.50
2023-08-18T06:33:16.458Z,17.60
2023-08-18T06:34:16.014Z,19.50
2023-08-18T06:35:15.998Z,23.40
2023-08-18T06:36:15.983Z,17.90
2023-08-18T06:37:16.015Z,19.10
2023-08-18T06:38:15.961Z,19.70
2023-08-18T06:39:15.956Z,17.50
2023-08-18T06:40:15.940Z,17.40
2023-08-18T06:41:15.942Z,16.70
2023-08-18T06:42:15.949Z,17.60
2023-08-18T06:43:15.920Z,20.40
2023-08-18T06:44:15.909Z,20.10
2023-08-18T06:45:15.896Z,18.20
2023-08-18T06:46:15.946Z,17.90
2023-08-18T06:47:15.886Z,15.90
2023-08-18T06:48:15.870Z,17.10
2023-08-18T06:49:15.919Z,18.80
2023-08-18T06:50:15.851Z,16.10
2023-08-18T06:51:15.843Z,20.30
2023-08-18T06:52:15.823Z,17.90
2023-08-18T06:53:15.808Z,18.30
2023-08-18T06:54:15.808Z,18.40
2023-08-18T06:55:20.961Z,20.40
2023-08-18T06:56:16.798Z,19.60
2023-08-18T06:57:15.768Z,19.90
2023-08-18T06:58:15.821Z,18.40
2023-08-18T06:59:15.756Z,20.80
2023-08-18T07:00:15.765Z,17.40
2023-08-18T07:01:15.813Z,18.20
2023-08-18T07:02:15.766Z,17.70
2023-08-18T07:03:15.888Z,19.00
2023-08-18T07:04:15.702Z,16.90
2023-08-18T07:05:15.712Z,16.20
2023-08-18T07:06:15.714Z,21.00
2023-08-18T07:07:15.686Z,17.70
2023-08-18T07:08:15.660Z,19.10
2023-08-18T07:09:15.657Z,17.20
2023-08-18T07:10:15.663Z,17.60
2023-08-18T07:11:15.633Z,16.70
2023-08-18T07:12:16.628Z,15.80
2023-08-18T07:13:15.612Z,17.90
2023-08-18T07:14:15.620Z,17.30
2023-08-18T07:15:15.602Z,17.70
2023-08-18T07:16:15.718Z,15.30
2023-08-18T07:17:15.581Z,16.60
2023-08-18T07:18:15.562Z,17.20
2023-08-18T07:19:15.590Z,22.40
2023-08-18T07:20:15.580Z,17.00
2023-08-18T07:21:15.538Z,16.70
2023-08-18T07:22:15.515Z,18.70
2023-08-18T07:23:15.508Z,19.90
2023-08-18T07:24:15.516Z,20.80
2023-08-18T07:25:15.499Z,20.60
2023-08-18T07:26:15.472Z,17.30
2023-08-18T07:27:15.480Z,21.30
2023-08-18T07:28:15.469Z,20.80
2023-08-18T07:29:15.462Z,16.90
2023-08-18T07:30:15.431Z,18.80
2023-08-18T07:31:15.508Z,17.90
2023-08-18T07:32:15.442Z,16.30
2023-08-18T07:33:15.444Z,15.80
2023-08-18T07:34:15.395Z,14.60
2023-08-18T07:35:15.378Z,15.80
2023-08-18T07:36:15.372Z,14.50
2023-08-18T07:37:15.518Z,14.20
2023-08-18T07:38:15.381Z,16.70
2023-08-18T07:39:15.341Z,12.80
2023-08-18T07:40:15.326Z,14.50
2023-08-18T07:41:15.319Z,15.30
2023-08-18T07:42:15.324Z,16.60
2023-08-18T07:43:15.317Z,15.60
2023-08-18T07:44:15.277Z,15.40
2023-08-18T07:45:15.276Z,16.50
2023-08-18T07:46:15.410Z,15.30
2023-08-18T07:47:15.305Z,14.20
2023-08-18T07:48:15.235Z,17.50
2023-08-18T07:49:15.270Z,15.90
2023-08-18T07:50:15.219Z,18.40
2023-08-18T07:51:15.201Z,16.10
2023-08-18T07:52:15.217Z,19.10
2023-08-18T07:53:16.411Z,14.70
2023-08-18T07:54:15.181Z,16.90
2023-08-18T07:55:15.171Z,12.30
2023-08-18T07:56:15.181Z,15.00
2023-08-18T07:57:15.173Z,13.50
2023-08-18T07:58:16.600Z,16.10
2023-08-18T07:59:15.154Z,15.50
2023-08-18T08:00:15.124Z,13.60
2023-08-18T08:01:15.162Z,16.80
2023-08-18T08:02:30.950Z,15.80
2023-08-18T08:03:17.209Z,13.80
2023-08-18T08:04:16.115Z,13.60
2023-08-18T08:05:15.087Z,14.40
2023-08-18T08:06:15.075Z,12.30
2023-08-18T08:07:15.043Z,12.80
2023-08-18T08:08:15.041Z,14.50
2023-08-18T08:09:15.054Z,13.00
2023-08-18T08:10:15.028Z,12.50
2023-08-18T08:11:15.018Z,11.60
2023-08-18T08:12:15.006Z,13.40
2023-08-18T08:13:14.984Z,13.80
2023-08-18T08:14:14.984Z,14.00
2023-08-18T08:15:15.006Z,12.20
2023-08-18T08:16:14.983Z,11.20
2023-08-18T08:17:14.956Z,11.70
2023-08-18T08:18:15.018Z,13.70
2023-08-18T08:19:18.290Z,11.00
2023-08-18T08:20:15.955Z,12.70
2023-08-18T08:21:14.913Z,10.70
2023-08-18T08:22:14.898Z,12.50
2023-08-18T08:23:14.882Z,12.10
2023-08-18T08:24:14.900Z,12.50
2023-08-18T08:25:14.884Z,11.30
2023-08-18T08:26:14.855Z,11.90
2023-08-18T08:27:14.846Z,11.50
2023-08-18T08:28:14.840Z,14.60
2023-08-18T08:29:14.840Z,11.30
2023-08-18T08:30:30.180Z,11.60
2023-08-18T08:31:16.847Z,12.80
2023-08-18T08:32:14.796Z,13.20
2023-08-18T08:33:17.085Z,11.90
2023-08-18T08:34:15.817Z,12.60
2023-08-18T08:35:14.766Z,12.20
2023-08-18T08:36:14.757Z,11.10
2023-08-18T08:37:14.747Z,10.30
2023-08-18T08:38:14.750Z,12.50
2023-08-18T08:39:14.737Z,11.10
2023-08-18T08:40:14.728Z,9.20
2023-08-18T08:41:14.703Z,10.40
2023-08-18T08:42:14.719Z,11.30
2023-08-18T08:43:14.697Z,15.40
2023-08-18T08:44:14.716Z,12.50
2023-08-18T08:45:14.668Z,8.90
2023-08-18T08:46:15.783Z,10.50
2023-08-18T08:47:17.594Z,10.20
2023-08-18T08:48:20.092Z,13.10
2023-08-18T08:49:15.621Z,13.90
2023-08-18T08:50:14.612Z,10.60
2023-08-18T08:51:14.613Z,10.90
2023-08-18T08:52:14.628Z,12.50
2023-08-18T08:53:14.590Z,13.40
2023-08-18T08:54:14.585Z,10.10
2023-08-18T08:55:14.577Z,9.40
2023-08-18T08:56:14.571Z,10.30
2023-08-18T08:57:14.571Z,11.90
2023-08-18T08:58:15.017Z,10.10
2023-08-18T08:59:17.821Z,9.90
2023-08-18T09:00:15.671Z,12.60
2023-08-18T09:01:14.559Z,11.20
2023-08-18T09:02:14.607Z,10.70
2023-08-18T09:03:14.558Z,12.50
2023-08-18T09:04:14.514Z,9.90
2023-08-18T09:05:14.466Z,11.00
2023-08-18T09:06:15.493Z,11.10
2023-08-18T09:07:14.456Z,8.90
2023-08-18T09:08:14.449Z,10.10
2023-08-18T09:09:14.427Z,9.00
2023-08-18T09:10:15.431Z,11.10
2023-08-18T09:11:15.424Z,10.20
2023-08-18T09:12:14.400Z,10.00
2023-08-18T09:13:14.397Z,8.30
2023-08-18T09:14:14.382Z,7.90
2023-08-18T09:15:14.382Z,12.00
2023-08-18T09:16:14.408Z,10.00
2023-08-18T09:17:14.362Z,9.90
2023-08-18T09:18:14.382Z,11.40
2023-08-18T09:19:14.363Z,8.60
2023-08-18T09:20:14.364Z,10.00
2023-08-18T09:21:14.307Z,10.60
2023-08-18T09:22:14.309Z,10.70
2023-08-18T09:23:14.296Z,9.30
2023-08-18T09:24:14.311Z,12.30
2023-08-18T09:25:14.318Z,9.80
2023-08-18T09:26:14.277Z,9.40
2023-08-18T09:27:14.256Z,8.00
2023-08-18T09:28:16.323Z,8.90
2023-08-18T09:29:15.252Z,8.20
2023-08-18T09:30:14.251Z,9.10
2023-08-18T09:31:14.264Z,8.70
2023-08-18T09:32:14.215Z,8.60
2023-08-18T09:33:14.256Z,8.50
2023-08-18T09:34:14.199Z,11.40
2023-08-18T09:35:14.170Z,13.50
2023-08-18T09:36:14.229Z,10.70
2023-08-18T09:37:14.144Z,10.30
2023-08-18T09:38:14.190Z,10.70
2023-08-18T09:39:14.146Z,8.40
2023-08-18T09:40:14.118Z,8.70
2023-08-18T09:41:14.122Z,7.30
2023-08-18T09:42:14.133Z,9.30
2023-08-18T09:43:14.109Z,17.70
2023-08-18T09:44:14.091Z,14.50
2023-08-18T09:45:14.069Z,12.70
2023-08-18T09:46:14.110Z,10.30
2023-08-18T09:47:14.048Z,8.40
2023-08-18T09:48:14.085Z,11.00
2023-08-18T09:49:14.028Z,9.10
2023-08-18T09:50:14.025Z,9.20
2023-08-18T09:51:14.033Z,11.60
2023-08-18T09:52:14.042Z,7.30
2023-08-18T09:53:14.012Z,9.20
2023-08-18T09:54:13.968Z,9.80
2023-08-18T09:55:14.974Z,9.30
2023-08-18T09:56:13.963Z,9.60
2023-08-18T09:57:13.975Z,9.60
2023-08-18T09:58:13.957Z,8.50
2023-08-18T09:59:13.976Z,9.70
2023-08-18T10:00:13.930Z,12.40
2023-08-18T10:01:13.914Z,10.20
2023-08-18T10:02:13.934Z,8.60
2023-08-18T10:03:13.935Z,9.70
2023-08-18T10:04:13.902Z,8.60
2023-08-18T10:05:13.865Z,9.30
2023-08-18T10:06:13.940Z,9.40
2023-08-18T10:07:13.876Z,9.00
2023-08-18T10:08:13.842Z,10.20
2023-08-18T10:09:13.831Z,10.40
2023-08-18T10:10:13.833Z,8.90
2023-08-18T10:11:13.860Z,9.90
2023-08-18T10:12:13.819Z,8.40
2023-08-18T10:13:13.804Z,11.20
2023-08-18T10:14:13.782Z,13.30
2023-08-18T10:15:13.772Z,10.30
2023-08-18T10:16:13.818Z,7.80
2023-08-18T10:17:13.765Z,7.90
2023-08-18T10:18:13.747Z,11.40
2023-08-18T10:19:13.746Z,9.10
2023-08-18T10:20:13.732Z,12.50
2023-08-18T10:21:13.758Z,11.50
2023-08-18T10:22:13.705Z,8.70
2023-08-18T10:23:13.694Z,8.80
2023-08-18T10:24:13.684Z,10.50
2023-08-18T10:25:13.699Z,8.40
2023-08-18T10:26:13.662Z,9.30
2023-08-18T10:27:13.689Z,7.80
2023-08-18T10:28:13.643Z,10.00
2023-08-18T10:29:22.578Z,8.60
2023-08-18T10:30:15.652Z,8.30
2023-08-18T10:31:13.679Z,10.90
2023-08-18T10:32:13.664Z,11.00
2023-08-18T10:33:13.635Z,9.60
2023-08-18T10:34:13.600Z,11.50
2023-08-18T10:35:13.702Z,8.80
2023-08-18T10:36:13.587Z,10.90
2023-08-18T10:37:13.565Z,10.00
2023-08-18T10:38:13.549Z,7.60
2023-08-18T10:39:13.562Z,7.30
2023-08-18T10:40:13.526Z,7.70
2023-08-18T10:41:13.523Z,7.40
2023-08-18T10:42:13.508Z,7.60
2023-08-18T10:43:13.591Z,11.00
2023-08-18T10:44:13.511Z,8.20
2023-08-18T10:45:13.482Z,8.60
2023-08-18T10:46:13.622Z,9.50
2023-08-18T10:47:13.463Z,9.80
2023-08-18T10:48:15.146Z,8.80
2023-08-18T10:49:14.446Z,8.40
2023-08-18T10:50:13.435Z,9.90
2023-08-18T10:51:13.442Z,7.40
2023-08-18T10:52:13.422Z,7.30
2023-08-18T10:53:13.426Z,9.30
2023-08-18T10:54:13.398Z,8.10
2023-08-18T10:55:13.397Z,8.20
2023-08-18T10:56:13.378Z,12.10
2023-08-18T10:57:13.403Z,8.80
2023-08-18T10:58:13.377Z,8.70
2023-08-18T10:59:13.356Z,7.70
2023-08-18T11:00:13.349Z,9.80
2023-08-18T11:01:13.350Z,7.10
2023-08-18T11:02:13.335Z,7.00
2023-08-18T11:03:13.362Z,8.30
2023-08-18T11:04:13.321Z,9.10
2023-08-18T11:05:13.292Z,8.70
2023-08-18T11:06:13.274Z,7.60
2023-08-18T11:07:13.295Z,9.90
2023-08-18T11:08:13.265Z,9.10
2023-08-18T11:09:13.249Z,7.40
2023-08-18T11:10:13.245Z,8.60
2023-08-18T11:11:13.252Z,8.00
2023-08-18T11:12:13.228Z,10.90
2023-08-18T11:13:15.492Z,6.30
2023-08-18T11:14:13.201Z,7.60
2023-08-18T11:15:13.192Z,7.60
2023-08-18T11:16:13.259Z,6.90
2023-08-18T11:17:13.161Z,9.60
2023-08-18T11:18:13.153Z,6.30
2023-08-18T11:19:13.202Z,6.90
2023-08-18T11:20:13.141Z,8.10
2023-08-18T11:21:13.129Z,7.80
2023-08-18T11:22:13.119Z,8.50
2023-08-18T11:23:13.099Z,6.30
2023-08-18T11:24:13.085Z,8.40
2023-08-18T11:25:13.378Z,8.00
2023-08-18T11:26:13.082Z,7.20
2023-08-18T11:27:13.099Z,6.50
2023-08-18T11:28:13.038Z,8.20
2023-08-18T11:29:13.052Z,7.10
2023-08-18T11:30:13.039Z,8.10
2023-08-18T11:31:13.040Z,10.60
2023-08-18T11:32:13.002Z,8.00
2023-08-18T11:33:13.073Z,7.40
2023-08-18T11:34:12.991Z,7.30
2023-08-18T11:35:13.001Z,8.00
2023-08-18T11:36:12.996Z,7.10
2023-08-18T11:37:12.968Z,7.10
2023-08-18T11:38:12.948Z,10.00
2023-08-18T11:39:12.954Z,9.30
2023-08-18T11:40:12.945Z,6.60
2023-08-18T11:41:12.927Z,7.10
2023-08-18T11:42:12.957Z,6.70
2023-08-18T11:43:12.898Z,7.20
2023-08-18T11:44:12.947Z,8.70
2023-08-18T11:45:12.880Z,7.30
2023-08-18T11:46:12.867Z,6.90
2023-08-18T11:47:12.863Z,8.20
2023-08-18T11:48:12.854Z,8.50
2023-08-18T11:49:12.858Z,7.30
2023-08-18T11:50:12.829Z,7.60
2023-08-18T11:51:13.829Z,7.40
2023-08-18T11:52:12.820Z,9.30
2023-08-18T11:53:13.023Z,6.50
2023-08-18T11:54:12.802Z,8.10
2023-08-18T11:55:12.791Z,8.60
2023-08-18T11:56:12.798Z,8.80
2023-08-18T11:57:12.778Z,7.20
2023-08-18T11:58:12.763Z,7.60
2023-08-18T11:59:12.743Z,8.10
2023-08-18T12:00:12.746Z,10.20
2023-08-18T12:01:12.786Z,8.60
2023-08-18T12:02:12.722Z,7.50
2023-08-18T12:03:12.777Z,7.20
2023-08-18T12:04:12.771Z,8.50
2023-08-18T12:05:12.677Z,8.40
2023-08-18T12:06:12.726Z,6.60
2023-08-18T12:07:12.689Z,7.30
2023-08-18T12:08:12.664Z,9.80
2023-08-18T12:09:12.640Z,6.90
2023-08-18T12:10:12.646Z,8.90
2023-08-18T12:11:12.626Z,8.10
2023-08-18T12:12:12.636Z,8.70
2023-08-18T12:13:12.601Z,8.40
2023-08-18T12:14:12.592Z,8.90
2023-08-18T12:15:12.600Z,6.40
2023-08-18T12:16:12.616Z,8.50
2023-08-18T12:17:12.577Z,7.60
2023-08-18T12:18:12.564Z,7.00
2023-08-18T12:19:12.566Z,9.40
2023-08-18T12:20:12.541Z,6.80
2023-08-18T12:21:12.546Z,6.30
2023-08-18T12:22:12.550Z,10.80
2023-08-18T12:23:12.523Z,7.40
2023-08-18T12:24:12.504Z,8.40
2023-08-18T12:25:12.494Z,6.90
2023-08-18T12:26:12.512Z,6.30
2023-08-18T12:27:12.486Z,7.00
2023-08-18T12:28:12.474Z,8.20
2023-08-18T12:29:12.465Z,9.50
2023-08-18T12:30:12.454Z,7.80
2023-08-18T12:31:12.489Z,8.90
2023-08-18T12:32:14.519Z,10.30
2023-08-18T12:33:13.448Z,7.40
2023-08-18T12:34:12.417Z,6.90
2023-08-18T12:35:12.420Z,7.20
2023-08-18T12:36:13.414Z,7.10
2023-08-18T12:37:12.388Z,11.20
2023-08-18T12:38:12.366Z,7.60
2023-08-18T12:39:12.369Z,7.40
2023-08-18T12:40:12.385Z,8.10
2023-08-18T12:41:12.337Z,9.30
2023-08-18T12:42:12.332Z,9.40
2023-08-18T12:43:12.333Z,8.50
2023-08-18T12:44:12.329Z,7.90
2023-08-18T12:45:12.328Z,5.70
2023-08-18T12:46:12.354Z,6.90
2023-08-18T12:47:12.282Z,7.00
2023-08-18T12:48:12.285Z,8.10
2023-08-18T12:49:12.286Z,11.60
2023-08-18T12:50:14.522Z,8.70
2023-08-18T12:51:13.244Z,6.60
2023-08-18T12:52:12.234Z,7.00
2023-08-18T12:53:12.296Z,8.60
2023-08-18T12:54:12.223Z,8.90
2023-08-18T12:55:12.296Z,7.70